Merepoint, Maine
Current Conditions -  °F | °C
As of 8:51 PM on Friday 28 Nov 2014 (Local Time) from KPWM Reporting Station
Scattered Clouds Scattered Clouds  
Wind Chill: 21°   Ceiling: Unl
Heat Index: 26°   Visibility: 10mi
Dew Point: 15°   Wind: 5mph
Humidity: 63%   Direction: 310°NW
Pressure: 30.15"   Gusts: NA
Location:  43.82°N, 70.03°W
Report Text: KPWM 290151Z 31004KT 10SM SCT038 M03/M09 A3015 RMK AO2 SLP210 T10331094
Loading
Personal Weather Stations






























Interactive Weather Map New forecast layout! Learn more

10-Day Weather Forecast

Advertisements
Track Severe Weather on mobile